logo tempoitalia

Diretta Meteo Calamocha, Spagnalunedì 31 agosto ore 07:00

Mappa
Sereno 18 °C Sereno 24 Ore: T.min 18 T.max 28
Ponente Nord/Nord-Est Km/h 11.1 Punto di rugiada: 14 °C Umidità: 77% Visibilità: 10 Km
Il sole sorge alle: 07:31 Il sole tramonta alle: 20:39
31 Agosto 2026 07:00 tempo osservato: Sereno Sereno 18 77 1018 vento: Nord N/NE 11.1
31 Agosto 2026 06:30 tempo osservato: Nuvoloso Nuvoloso 19 77 1018 vento: Nord N/NE 13
31 Agosto 2026 06:00 tempo osservato: Molto Nuvoloso Molto Nuvoloso 19 82 1018 vento: Nord N/NE 11.1
31 Agosto 2026 05:30 tempo osservato: Nuvoloso Nuvoloso 18 82 1018 vento: Nord N/NE 13
31 Agosto 2026 05:00 tempo osservato: Poco Nuvoloso Poco Nuvoloso 18 82 1018 vento: Nord N 5.5
31 Agosto 2026 04:30 tempo osservato: Sereno Sereno 18 88 1018 vento: Nord N 0
31 Agosto 2026 04:00 tempo osservato: Sereno Sereno 18 88 1018 vento: Nord N 0
31 Agosto 2026 03:30 tempo osservato: Sereno Sereno 19 82 1018 vento: Nord N 3.7
31 Agosto 2026 03:00 tempo osservato: Sereno Sereno 19 88 1018 vento: Nord N 5.5
31 Agosto 2026 02:30 tempo osservato: Sereno Sereno 19 88 1018 vento: Nord N 5.5
31 Agosto 2026 02:00 tempo osservato: Sereno Sereno 20 88 1018 vento: Nord N 3.7
31 Agosto 2026 01:30 tempo osservato: Sereno Sereno 20 93 1018 vento: Nord N 1.8
31 Agosto 2026 01:00 tempo osservato: Sereno Sereno 20 88 1018 vento: Nord N 0
31 Agosto 2026 00:30 tempo osservato: Sereno Sereno 20 88 1018 vento: Nord N 1.8
31 Agosto 2026 00:00 tempo osservato: Sereno Sereno 20 93 1018 vento: Nord N 1.8
30 Agosto 2026 23:30 tempo osservato: Sereno Sereno 20 93 1018 vento: Nord N 3.7
30 Agosto 2026 23:00 tempo osservato: Sereno Sereno 21 88 1018 vento: Nord N 5.5
30 Agosto 2026 22:30 tempo osservato: Sereno Sereno 22 88 1018 vento: Nord NE 7.4
30 Agosto 2026 22:00 tempo osservato: Sereno Sereno 22 88 1018 vento: Nord NE 7.4
30 Agosto 2026 21:30 tempo osservato: Sereno Sereno 23 78 1017 vento: Nord N 3.7
30 Agosto 2026 21:00 tempo osservato: Sereno Sereno 23 83 1017 vento: Nord E/SE 11.1
30 Agosto 2026 20:30 tempo osservato: Sereno Sereno 25 61 1017 vento: Nord S/SE 9.3
30 Agosto 2026 20:00 tempo osservato: Sereno Sereno 27 42 1017 vento: Nord S/SO 9.3
30 Agosto 2026 19:30 tempo osservato: Sereno Sereno 27 36 1017 vento: Nord S 13
30 Agosto 2026 19:00 tempo osservato: Sereno Sereno 28 30 1017 vento: Nord S/SE 14.8
30 Agosto 2026 18:30 tempo osservato: Sereno Sereno 28 37 1017 vento: Nord S 14.8
30 Agosto 2026 18:00 tempo osservato: Sereno Sereno 28 42 1017 vento: Nord S/SE 16.7
30 Agosto 2026 17:30 tempo osservato: Sereno Sereno 27 57 1017 vento: Nord SE 16.7
30 Agosto 2026 17:00 tempo osservato: Sereno Sereno 27 57 1017 vento: Nord E 14.8
30 Agosto 2026 16:30 tempo osservato: Sereno Sereno 28 51 1017 vento: Nord E/SE 14.8
30 Agosto 2026 16:00 tempo osservato: Sereno Sereno 28 48 1017 vento: Nord E 14.8
30 Agosto 2026 15:30 tempo osservato: Sereno Sereno 28 51 1018 vento: Nord E/SE 18.5
30 Agosto 2026 15:00 tempo osservato: Sereno Sereno 28 54 1018 vento: Nord E/SE 18.5
30 Agosto 2026 14:30 tempo osservato: Sereno Sereno 27 54 1018 vento: Nord E/SE 18.5
30 Agosto 2026 14:00 tempo osservato: Sereno Sereno 28 51 1018 vento: Nord SE 20.3
30 Agosto 2026 13:30 tempo osservato: Sereno Sereno 28 45 1018 vento: Nord SE 16.7
30 Agosto 2026 13:00 tempo osservato: Sereno Sereno 28 37 1019 vento: Nord SE 14.8
30 Agosto 2026 12:30 tempo osservato: Sereno Sereno 28 34 1019 vento: Nord SE 13
30 Agosto 2026 12:00 tempo osservato: Sereno Sereno 28 32 1019 vento: Nord SE 7.4
30 Agosto 2026 11:30 tempo osservato: Sereno Sereno 28 30 1019 vento: Nord S/SE 9.3
30 Agosto 2026 11:00 tempo osservato: Sereno Sereno 27 34 1019 vento: Nord N 3.7
30 Agosto 2026 10:30 tempo osservato: Sereno Sereno 26 41 1019 vento: Nord N 5.5
30 Agosto 2026 10:00 tempo osservato: Sereno Sereno 24 43 1019 vento: Nord N 5.5
30 Agosto 2026 09:30 tempo osservato: Sereno Sereno 23 49 1019 vento: Nord N/NE 9.3
30 Agosto 2026 09:00 tempo osservato: Sereno Sereno 21 49 1019 vento: Nord N/NE 11.1
30 Agosto 2026 08:30 tempo osservato: Sereno Sereno 20 56 1019 vento: Nord N 1.8
30 Agosto 2026 08:00 tempo osservato: Sereno Sereno 19 55 1018 vento: Nord N 1.8